createdAt,value
2022-10-23T00:03:27.531Z,13.78
2022-10-23T00:08:50.144Z,13.84
2022-10-23T00:14:12.000Z,13.83
2022-10-23T00:19:33.816Z,13.81
2022-10-23T00:24:55.627Z,13.84
2022-10-23T00:30:17.576Z,13.85
2022-10-23T00:35:42.613Z,13.87
2022-10-23T00:41:05.289Z,13.88
2022-10-23T00:46:27.388Z,13.79
2022-10-23T00:51:56.019Z,13.93
2022-10-23T00:57:17.904Z,13.93
2022-10-23T01:02:39.945Z,13.88
2022-10-23T01:08:17.985Z,13.85
2022-10-23T01:13:50.729Z,13.86
2022-10-23T01:19:27.231Z,13.89
2022-10-23T01:24:56.660Z,13.90
2022-10-23T01:30:18.698Z,13.96
2022-10-23T01:35:46.874Z,13.98
2022-10-23T01:41:18.663Z,13.95
2022-10-23T01:46:43.054Z,13.98
2022-10-23T01:52:08.599Z,13.99
2022-10-23T01:57:32.640Z,13.99
2022-10-23T02:02:57.655Z,14.03
2022-10-23T02:08:19.532Z,14.02
2022-10-23T02:14:03.998Z,14.01
2022-10-23T02:19:45.856Z,14.01
2022-10-23T02:25:13.899Z,14.01
2022-10-23T02:30:40.543Z,14.01
2022-10-23T02:36:02.294Z,13.65
2022-10-23T02:41:24.035Z,13.95
2022-10-23T02:47:07.369Z,13.99
2022-10-23T02:52:42.263Z,14.00
2022-10-23T02:58:12.899Z,13.99
2022-10-23T03:03:45.102Z,13.99
2022-10-23T03:09:09.588Z,13.98
2022-10-23T03:14:31.407Z,14.04
2022-10-23T03:19:53.358Z,14.05
2022-10-23T03:25:15.384Z,13.97
2022-10-23T03:30:37.224Z,13.98
2022-10-23T03:35:59.008Z,13.95
2022-10-23T03:41:20.866Z,13.85
2022-10-23T03:46:42.658Z,13.84
2022-10-23T03:52:05.207Z,13.82
2022-10-23T03:57:27.006Z,13.89
2022-10-23T04:02:49.019Z,13.99
2022-10-23T04:08:10.879Z,13.92
2022-10-23T04:13:32.764Z,13.92
2022-10-23T04:18:54.598Z,13.95
2022-10-23T04:24:16.422Z,13.84
2022-10-23T04:29:38.209Z,13.90
2022-10-23T04:35:00.031Z,13.95
2022-10-23T04:40:21.883Z,13.97
2022-10-23T04:45:43.690Z,14.01
2022-10-23T04:51:06.241Z,13.95
2022-10-23T04:56:28.088Z,13.96
2022-10-23T05:01:49.955Z,13.91
2022-10-23T05:07:11.925Z,13.84
2022-10-23T05:12:33.834Z,13.72
2022-10-23T05:18:00.010Z,13.72
2022-10-23T05:23:24.384Z,13.63
2022-10-23T05:28:46.205Z,13.56
2022-10-23T05:34:11.154Z,13.54
2022-10-23T05:39:35.586Z,13.55
2022-10-23T05:44:57.443Z,13.53
2022-10-23T05:50:19.676Z,13.62
2022-10-23T05:55:41.473Z,13.55
2022-10-23T06:01:09.224Z,13.52
2022-10-23T06:06:31.236Z,13.56
2022-10-23T06:11:53.111Z,13.59
2022-10-23T06:17:15.872Z,13.77
2022-10-23T06:22:37.828Z,13.82
2022-10-23T06:27:59.762Z,13.80
2022-10-23T06:33:21.647Z,13.85
2022-10-23T06:38:43.540Z,13.93
2022-10-23T06:44:05.453Z,13.99
2022-10-23T06:49:27.381Z,14.10
2022-10-23T06:54:49.216Z,14.20
2022-10-23T07:00:11.836Z,14.23
2022-10-23T07:05:33.716Z,14.20
2022-10-23T07:10:55.664Z,14.20
2022-10-23T07:16:23.033Z,14.48
2022-10-23T07:21:44.863Z,15.08
2022-10-23T07:27:06.941Z,15.10
2022-10-23T07:32:28.739Z,15.11
2022-10-23T07:37:50.602Z,15.11
2022-10-23T07:43:12.441Z,15.16
2022-10-23T07:48:34.527Z,15.31
2022-10-23T07:53:56.411Z,15.53
2022-10-23T07:59:18.265Z,15.53
2022-10-23T08:04:40.497Z,15.92
2022-10-23T08:10:02.442Z,16.68
2022-10-23T08:15:24.241Z,16.63
2022-10-23T08:20:48.305Z,16.65
2022-10-23T08:26:10.969Z,16.69
2022-10-23T08:31:32.831Z,16.26
2022-10-23T08:36:54.697Z,16.38
2022-10-23T08:42:23.545Z,15.99
2022-10-23T08:47:50.575Z,16.09
2022-10-23T08:53:44.594Z,16.10
2022-10-23T08:59:24.604Z,16.34
2022-10-23T09:04:48.636Z,16.41
2022-10-23T09:11:21.509Z,16.45
2022-10-23T09:17:06.340Z,16.28
2022-10-23T09:22:29.050Z,16.73
2022-10-23T09:27:56.122Z,17.07
2022-10-23T09:33:19.217Z,17.39
2022-10-23T09:38:47.208Z,17.36
2022-10-23T09:44:09.090Z,17.34
2022-10-23T09:49:32.867Z,16.91
2022-10-23T09:54:58.400Z,16.70
2022-10-23T10:00:22.273Z,16.56
2022-10-23T10:05:44.161Z,17.20
2022-10-23T10:11:27.188Z,17.91
2022-10-23T10:17:06.708Z,17.59
2022-10-23T10:22:52.189Z,17.40
2022-10-23T10:28:29.011Z,17.16
2022-10-23T10:34:03.581Z,17.14
2022-10-23T10:39:59.646Z,16.91
2022-10-23T10:45:30.655Z,16.71
2022-10-23T10:50:57.758Z,16.51
2022-10-23T10:56:23.802Z,16.60
2022-10-23T11:01:53.432Z,16.76
2022-10-23T11:07:21.615Z,17.22
2022-10-23T11:12:46.132Z,17.38
2022-10-23T11:18:14.952Z,17.19
2022-10-23T11:29:59.584Z,16.77
2022-10-23T11:35:40.237Z,17.04
2022-10-23T11:41:16.294Z,17.30
2022-10-23T11:46:39.031Z,17.19
2022-10-23T11:52:05.583Z,17.25
2022-10-23T11:57:27.382Z,16.89
2022-10-23T12:02:59.102Z,17.42
2022-10-23T12:08:25.359Z,17.66
2022-10-23T12:13:47.178Z,17.99
2022-10-23T12:19:20.696Z,18.32
2022-10-23T12:24:55.521Z,18.31
2022-10-23T12:30:21.749Z,18.68
2022-10-23T12:36:11.569Z,18.55
2022-10-23T12:41:34.811Z,18.46
2022-10-23T12:46:59.287Z,18.22
2022-10-23T12:52:21.887Z,18.15
2022-10-23T12:57:44.565Z,17.80
2022-10-23T13:03:06.632Z,17.44
2022-10-23T13:08:42.200Z,17.18
2022-10-23T13:14:12.201Z,17.12
2022-10-23T13:19:34.309Z,17.47
2022-10-23T13:24:56.118Z,17.47
2022-10-23T13:30:32.966Z,17.26
2022-10-23T13:36:14.992Z,17.17
2022-10-23T13:41:46.938Z,17.17
2022-10-23T13:47:13.235Z,17.13
2022-10-23T13:52:35.055Z,16.97
2022-10-23T13:57:56.895Z,17.05
2022-10-23T14:03:18.853Z,16.86
2022-10-23T14:08:40.722Z,16.72
2022-10-23T14:14:02.979Z,16.56
2022-10-23T14:19:24.891Z,16.67
2022-10-23T14:24:46.763Z,16.61
2022-10-23T14:30:09.150Z,16.63
2022-10-23T14:35:31.049Z,16.59
2022-10-23T14:40:53.140Z,16.23
2022-10-23T14:46:17.375Z,16.36
2022-10-23T14:51:39.257Z,16.26
2022-10-23T14:57:01.411Z,16.22
2022-10-23T15:02:23.502Z,16.12
2022-10-23T15:07:45.380Z,16.12
2022-10-23T15:13:07.262Z,16.08
2022-10-23T15:18:29.148Z,16.04
2022-10-23T15:23:51.272Z,15.95
2022-10-23T15:29:14.144Z,15.90
2022-10-23T15:34:36.104Z,15.82
2022-10-23T15:40:01.155Z,15.59
2022-10-23T15:45:26.614Z,15.58
2022-10-23T15:50:50.963Z,15.62
2022-10-23T15:56:12.867Z,15.47
2022-10-23T16:01:34.835Z,15.47
2022-10-23T16:06:56.938Z,15.51
2022-10-23T16:12:18.900Z,15.56
2022-10-23T16:17:40.974Z,15.48
2022-10-23T16:23:03.382Z,15.49
2022-10-23T16:28:25.237Z,15.56
2022-10-23T16:33:48.157Z,15.59
2022-10-23T16:39:11.558Z,15.55
2022-10-23T16:44:33.510Z,15.58
2022-10-23T16:49:55.440Z,15.52
2022-10-23T16:55:17.488Z,15.47
2022-10-23T17:00:39.455Z,15.42
2022-10-23T17:06:03.433Z,15.39
2022-10-23T17:11:35.060Z,14.96
2022-10-23T17:16:59.229Z,15.27
2022-10-23T17:22:21.045Z,15.20
2022-10-23T17:27:43.171Z,15.13
2022-10-23T17:33:05.309Z,15.10
2022-10-23T17:38:27.160Z,15.04
2022-10-23T17:43:50.124Z,14.95
2022-10-23T17:49:12.530Z,14.96
2022-10-23T17:54:34.370Z,14.92
2022-10-23T17:59:56.194Z,14.87
2022-10-23T18:05:18.183Z,14.87
2022-10-23T18:10:40.309Z,14.91
2022-10-23T18:16:04.283Z,14.96
2022-10-23T18:21:26.452Z,14.82
2022-10-23T18:26:48.610Z,14.67
2022-10-23T18:32:10.602Z,14.47
2022-10-23T18:37:34.701Z,14.34
2022-10-23T18:43:00.433Z,14.19
2022-10-23T18:48:22.254Z,14.09
2022-10-23T18:53:44.527Z,14.01
2022-10-23T18:59:10.519Z,13.97
2022-10-23T19:04:35.558Z,13.83
2022-10-23T19:09:58.457Z,13.77
2022-10-23T19:15:20.310Z,13.73
2022-10-23T19:20:43.178Z,13.63
2022-10-23T19:26:07.007Z,13.52
2022-10-23T19:31:29.014Z,13.44
2022-10-23T19:36:52.957Z,13.36
2022-10-23T19:42:14.970Z,13.23
2022-10-23T19:47:37.372Z,13.14
2022-10-23T19:52:59.196Z,13.13
2022-10-23T19:58:21.042Z,13.03
2022-10-23T20:03:43.542Z,12.97
2022-10-23T20:09:08.107Z,12.89
2022-10-23T20:14:30.262Z,12.87
2022-10-23T20:19:52.097Z,12.79
2022-10-23T20:25:13.936Z,12.81
2022-10-23T20:30:42.837Z,12.67
2022-10-23T20:36:07.575Z,12.50
2022-10-23T20:41:30.153Z,12.35
2022-10-23T20:46:52.456Z,12.35
2022-10-23T20:52:14.283Z,12.19
2022-10-23T20:57:36.097Z,12.08
2022-10-23T21:02:58.132Z,12.02
2022-10-23T21:08:19.998Z,11.86
2022-10-23T21:13:44.063Z,11.78
2022-10-23T21:19:06.745Z,11.70
2022-10-23T21:24:28.615Z,11.57
2022-10-23T21:29:50.537Z,11.57
2022-10-23T21:35:12.379Z,11.49
2022-10-23T21:40:34.179Z,11.43
2022-10-23T21:45:58.811Z,11.38
2022-10-23T21:51:26.791Z,11.24
2022-10-23T21:56:51.240Z,11.07
2022-10-23T22:02:13.249Z,10.96
2022-10-23T22:07:35.252Z,10.99
2022-10-23T22:12:57.059Z,10.94
2022-10-23T22:18:18.868Z,10.87
2022-10-23T22:23:41.546Z,10.88
2022-10-23T22:29:12.244Z,10.94
2022-10-23T22:34:52.005Z,10.91
2022-10-23T22:40:14.404Z,10.92
2022-10-23T22:45:36.203Z,10.82
2022-10-23T22:50:58.272Z,10.69
2022-10-23T22:56:22.779Z,10.72
2022-10-23T23:01:47.213Z,10.70
2022-10-23T23:07:12.039Z,10.57
2022-10-23T23:12:34.176Z,10.56
2022-10-23T23:17:56.126Z,10.43
2022-10-23T23:23:18.041Z,10.41
2022-10-23T23:28:40.424Z,10.39
2022-10-23T23:34:02.490Z,10.39
2022-10-23T23:39:24.303Z,10.33
2022-10-23T23:44:55.931Z,10.20
2022-10-23T23:50:25.615Z,10.33
2022-10-23T23:55:47.507Z,10.27
